Flugplatz Freiburg i. Br.

Für EDTF sind keine METAR/TAF Berichte vorhanden.
Es werden die Flugwettermeldungen vom Flugplatz Lahr in 38 km Entfernung angezeigt.

Bericht für EDTL

vom 17.09. um 13:20 UTC

Wind 8 kt aus 10°

Sichtweite 10 km oder mehr

gute Sicht, keine Wolken < 5000 ft, keine CB, keine Wettererscheinungen (CAVOK)

Temperatur 19.0°C

Taupunkt 12.0°C

Luftfeuchtigkeit 64%

Luftdruck 1020 hPa

EDTL 171320Z 01008KT CAVOK 19/12 Q1020

Prognose für EDTL

vom 17.09. um 00:00 UTC

Zwischen 00:00 UTC und 00:00 UTC

Wind 8 kt aus 10°

Sichtweite 10 km oder mehr

aufgebrochene Bewölkung in 2500 ft

TAF EDTL 171100Z 1712/1721 01008KT 9999 BKN025
Impressum